Time;durP1;ratioP1;P1;durP2;ratioP2;P2;SDS_P1;SDS_P2;PMS_P1;PMS_P2;Temp;Humidity;BMP_temperature;BMP_pressure;BME280_temperature;BME280_humidity;BME280_pressure;Samples;Min_cycle;Max_cycle;Signal;HPM_P1;HPM_P2
2024/01/12 00:03:04;;;;;;;38.83;18.40;;;;;;;;;;10384011;28;20042;-76
2024/01/12 00:08:08;;;;;;;43.08;16.88;;;;;;;;;;10388080;28;20050;-76
2024/01/12 00:13:11;;;;;;;34.85;16.42;;;;;;;;;;10392287;28;20057;-76
2024/01/12 00:18:14;;;;;;;33.60;16.20;;;;;;;;;;10387807;28;20049;-76
2024/01/12 00:23:19;;;;;;;36.65;16.70;;;;;;;;;;10394433;28;20072;-76
2024/01/12 00:28:22;;;;;;;30.25;14.65;;;;;;;;;;10395075;28;20394;-76
2024/01/12 00:33:26;;;;;;;31.10;14.90;;;;;;;;;;10396337;28;20060;-76
2024/01/12 00:38:30;;;;;;;37.10;16.33;;;;;;;;;;10398687;28;20053;-76
2024/01/12 00:43:34;;;;;;;33.58;16.10;;;;;;;;;;10399770;28;20068;-76
2024/01/12 00:48:37;;;;;;;31.33;15.82;;;;;;;;;;10394283;28;20043;-76
2024/01/12 00:53:42;;;;;;;35.10;15.73;;;;;;;;;;10399126;28;20540;-77
2024/01/12 00:58:45;;;;;;;27.67;14.27;;;;;;;;;;10400743;28;20495;-76
2024/01/12 01:03:49;;;;;;;27.08;13.60;;;;;;;;;;10397087;28;20681;-76
2024/01/12 01:08:54;;;;;;;26.10;12.52;;;;;;;;;;10397717;28;20049;-76
2024/01/12 01:13:57;;;;;;;23.27;11.70;;;;;;;;;;10393659;28;20482;-76
2024/01/12 01:19:01;;;;;;;24.20;11.68;;;;;;;;;;10390684;28;20047;-76
2024/01/12 01:24:06;;;;;;;23.90;12.38;;;;;;;;;;10397774;28;20041;-76
2024/01/12 01:29:09;;;;;;;24.20;11.93;;;;;;;;;;10398048;28;20063;-77
2024/01/12 01:34:12;;;;;;;21.98;11.05;;;;;;;;;;10393424;28;20076;-76
2024/01/12 01:39:17;;;;;;;21.40;11.48;;;;;;;;;;10398008;28;20080;-77
2024/01/12 01:44:20;;;;;;;22.02;11.18;;;;;;;;;;10397768;28;20045;-76
2024/01/12 01:49:24;;;;;;;21.77;11.15;;;;;;;;;;10393544;28;20046;-77
2024/01/12 01:54:29;;;;;;;20.80;10.32;;;;;;;;;;10388660;28;20036;-76
2024/01/12 01:59:33;;;;;;;21.40;10.85;;;;;;;;;;10395058;28;20160;-76
2024/01/12 02:04:40;;;;;;;21.73;10.52;;;;;;;;;;10397913;28;20444;-76
2024/01/12 02:09:45;;;;;;;23.98;11.20;;;;;;;;;;10389156;28;20057;-76
2024/01/12 02:14:48;;;;;;;22.35;10.98;;;;;;;;;;10391583;28;20599;-76
2024/01/12 02:19:58;;;;;;;25.45;11.77;;;;;;;;;;10385314;28;20537;-76
2024/01/12 02:25:03;;;;;;;23.55;11.68;;;;;;;;;;10394458;28;20045;-76
2024/01/12 02:30:08;;;;;;;20.92;11.60;;;;;;;;;;10394450;28;20045;-76
2024/01/12 02:35:11;;;;;;;20.60;11.05;;;;;;;;;;10392460;28;20069;-76
2024/01/12 02:40:16;;;;;;;22.80;11.02;;;;;;;;;;10388247;28;20560;-76
2024/01/12 02:45:20;;;;;;;21.85;10.93;;;;;;;;;;10406343;28;20137;-77
2024/01/12 02:50:24;;;;;;;20.45;11.02;;;;;;;;;;10374757;28;20044;-77
2024/01/12 02:55:28;;;;;;;22.35;11.00;;;;;;;;;;10387423;28;20567;-76
2024/01/12 03:00:32;;;;;;;20.67;10.82;;;;;;;;;;10394456;28;20044;-76
2024/01/12 03:05:35;;;;;;;23.63;11.07;;;;;;;;;;10385908;28;20387;-76
2024/01/12 03:10:40;;;;;;;19.63;10.63;;;;;;;;;;10384725;28;20038;-76
2024/01/12 03:15:43;;;;;;;22.48;10.95;;;;;;;;;;10391362;28;20042;-77
2024/01/12 03:20:46;;;;;;;21.67;11.18;;;;;;;;;;10395479;28;20037;-76
2024/01/12 03:25:51;;;;;;;23.17;11.40;;;;;;;;;;10389735;28;20071;-76
2024/01/12 03:30:54;;;;;;;23.35;11.27;;;;;;;;;;10396387;28;20040;-76
2024/01/12 03:35:58;;;;;;;24.75;11.55;;;;;;;;;;10393693;28;20076;-77
2024/01/12 03:41:05;;;;;;;21.58;10.38;;;;;;;;;;10396055;28;20054;-77
2024/01/12 03:46:09;;;;;;;20.40;10.65;;;;;;;;;;10395668;28;20095;-76
2024/01/12 03:51:12;;;;;;;23.23;10.88;;;;;;;;;;10393993;28;20041;-77
2024/01/12 03:56:16;;;;;;;22.33;11.20;;;;;;;;;;10396692;28;20406;-77
2024/01/12 04:01:21;;;;;;;20.73;10.02;;;;;;;;;;10388097;28;20133;-76
2024/01/12 04:06:25;;;;;;;20.45;9.93;;;;;;;;;;10393106;28;20045;-76
2024/01/12 04:11:29;;;;;;;18.20;8.98;;;;;;;;;;10404896;28;20037;-76
2024/01/12 04:16:32;;;;;;;19.40;9.90;;;;;;;;;;10396862;28;20049;-76
2024/01/12 04:21:36;;;;;;;20.75;12.15;;;;;;;;;;10397146;28;20049;-76
2024/01/12 04:26:40;;;;;;;23.80;12.25;;;;;;;;;;10392833;28;20041;-76
2024/01/12 04:31:44;;;;;;;21.25;11.00;;;;;;;;;;10394663;28;20068;-76
2024/01/12 04:36:47;;;;;;;20.05;10.55;;;;;;;;;;10389901;28;20040;-77
2024/01/12 04:41:52;;;;;;;22.88;12.00;;;;;;;;;;10392400;28;20121;-77
2024/01/12 04:46:55;;;;;;;23.63;10.38;;;;;;;;;;10396415;28;20096;-76
2024/01/12 04:51:58;;;;;;;21.30;9.60;;;;;;;;;;10402615;28;20045;-77
2024/01/12 04:57:03;;;;;;;19.35;9.57;;;;;;;;;;10398160;28;20049;-77
2024/01/12 05:02:07;;;;;;;19.40;9.95;;;;;;;;;;10381790;28;20052;-76
2024/01/12 05:07:10;;;;;;;22.88;11.35;;;;;;;;;;10423583;22;22218;-76
2024/01/12 05:12:15;;;;;;;16.85;9.23;;;;;;;;;;10406984;28;20045;-75
2024/01/12 05:17:18;;;;;;;20.02;10.05;;;;;;;;;;10408932;28;20048;-75
2024/01/12 05:22:21;;;;;;;16.83;8.88;;;;;;;;;;10410021;28;20049;-76
2024/01/12 05:27:26;;;;;;;18.98;9.27;;;;;;;;;;10432959;28;20049;-76
2024/01/12 05:32:29;;;;;;;19.13;9.70;;;;;;;;;;10413439;28;20075;-76
2024/01/12 05:37:33;;;;;;;19.33;9.27;;;;;;;;;;10419129;28;20128;-75
2024/01/12 05:42:37;;;;;;;18.27;9.13;;;;;;;;;;10413509;28;20049;-75
2024/01/12 05:47:40;;;;;;;13.35;7.72;;;;;;;;;;10408992;28;20045;-75
2024/01/12 05:52:44;;;;;;;17.00;8.10;;;;;;;;;;10405850;28;20071;-75
2024/01/12 05:57:48;;;;;;;14.57;7.40;;;;;;;;;;10404392;28;20132;-76
2024/01/12 06:02:52;;;;;;;14.38;7.80;;;;;;;;;;10407893;28;20049;-75
2024/01/12 06:07:55;;;;;;;13.73;7.32;;;;;;;;;;10414648;28;20052;-75
2024/01/12 06:12:59;;;;;;;14.95;7.88;;;;;;;;;;10404133;28;20050;-76
2024/01/12 06:18:03;;;;;;;12.93;7.00;;;;;;;;;;10410418;28;20038;-76
2024/01/12 06:23:06;;;;;;;14.23;7.45;;;;;;;;;;10408798;28;20053;-76
2024/01/12 06:28:13;;;;;;;13.63;7.78;;;;;;;;;;10414600;28;20057;-76
2024/01/12 06:33:16;;;;;;;17.05;8.73;;;;;;;;;;10409227;28;20059;-76
2024/01/12 06:38:19;;;;;;;16.10;8.10;;;;;;;;;;10412586;28;20049;-76
2024/01/12 06:43:24;;;;;;;16.75;7.50;;;;;;;;;;10409975;28;20137;-76
2024/01/12 06:48:27;;;;;;;14.75;7.55;;;;;;;;;;10411238;28;20048;-76
2024/01/12 06:53:31;;;;;;;16.73;7.90;;;;;;;;;;10414160;28;20056;-76
2024/01/12 06:58:35;;;;;;;14.70;7.40;;;;;;;;;;10419159;28;20042;-76
2024/01/12 07:03:38;;;;;;;15.77;8.15;;;;;;;;;;10418962;28;20052;-76
2024/01/12 07:08:42;;;;;;;13.50;7.10;;;;;;;;;;10410142;28;20041;-76
2024/01/12 07:13:47;;;;;;;14.90;8.13;;;;;;;;;;10402633;28;20540;-75
2024/01/12 07:18:50;;;;;;;16.08;8.10;;;;;;;;;;10406058;28;20041;-75
2024/01/12 07:23:53;;;;;;;20.00;9.43;;;;;;;;;;10400986;28;20056;-76
2024/01/12 07:28:59;;;;;;;22.08;10.32;;;;;;;;;;10414891;28;20072;-76
2024/01/12 07:34:03;;;;;;;19.65;9.77;;;;;;;;;;10402926;28;20056;-75
2024/01/12 07:39:08;;;;;;;26.50;11.05;;;;;;;;;;10412614;28;20053;-76
2024/01/12 07:44:13;;;;;;;22.13;10.35;;;;;;;;;;10419748;28;20045;-76
2024/01/12 07:49:16;;;;;;;18.70;10.13;;;;;;;;;;10422289;28;20048;-76
2024/01/12 07:54:19;;;;;;;17.38;9.23;;;;;;;;;;10408289;28;20041;-75
2024/01/12 07:59:24;;;;;;;18.98;8.98;;;;;;;;;;10410358;28;20041;-76
2024/01/12 08:04:28;;;;;;;16.50;8.52;;;;;;;;;;10431972;28;20041;-76
2024/01/12 08:09:31;;;;;;;17.98;9.43;;;;;;;;;;10417797;28;20057;-75
2024/01/12 08:14:36;;;;;;;22.30;10.02;;;;;;;;;;10417444;28;20076;-75
2024/01/12 08:19:39;;;;;;;20.20;9.30;;;;;;;;;;10407754;28;20044;-76
2024/01/12 08:24:42;;;;;;;19.20;9.27;;;;;;;;;;10412690;28;20049;-76
2024/01/12 08:29:47;;;;;;;17.50;9.35;;;;;;;;;;10414566;28;20053;-76
2024/01/12 08:34:51;;;;;;;20.85;9.48;;;;;;;;;;10414563;28;20128;-76
2024/01/12 08:39:54;;;;;;;23.35;10.15;;;;;;;;;;10406033;28;20462;-76
2024/01/12 08:44:59;;;;;;;19.02;8.93;;;;;;;;;;10413283;28;20061;-76
2024/01/12 08:50:03;;;;;;;17.95;8.95;;;;;;;;;;10405283;28;20046;-76
2024/01/12 08:55:09;;;;;;;19.00;9.00;;;;;;;;;;10409680;28;20664;-76
2024/01/12 09:00:16;;;;;;;17.88;8.52;;;;;;;;;;10406685;28;20049;-76
2024/01/12 09:05:20;;;;;;;16.60;8.40;;;;;;;;;;10413330;28;20049;-75
2024/01/12 09:10:24;;;;;;;15.32;7.63;;;;;;;;;;10403880;28;20664;-76
2024/01/12 09:15:29;;;;;;;25.67;12.40;;;;;;;;;;10412831;28;20044;-76
2024/01/12 09:20:32;;;;;;;19.85;10.63;;;;;;;;;;10409036;28;20121;-76
2024/01/12 09:25:36;;;;;;;22.83;11.88;;;;;;;;;;10416823;28;20388;-76
2024/01/12 09:30:41;;;;;;;16.67;8.13;;;;;;;;;;10403669;28;20076;-76
2024/01/12 09:35:44;;;;;;;15.43;7.55;;;;;;;;;;10412790;28;20049;-75
2024/01/12 09:40:48;;;;;;;10.95;5.88;;;;;;;;;;10418269;28;20056;-76
2024/01/12 09:45:54;;;;;;;7.90;4.45;;;;;;;;;;10414603;28;20426;-76
2024/01/12 09:50:59;;;;;;;18.43;10.47;;;;;;;;;;10400318;28;20453;-75
2024/01/12 09:56:03;;;;;;;19.63;12.20;;;;;;;;;;10417126;28;20045;-76
2024/01/12 10:01:09;;;;;;;17.83;9.88;;;;;;;;;;10417919;28;20073;-76
2024/01/12 10:06:12;;;;;;;15.20;9.23;;;;;;;;;;10413806;28;20048;-76
2024/01/12 10:11:16;;;;;;;21.08;10.35;;;;;;;;;;10417312;28;20037;-76
2024/01/12 10:16:22;;;;;;;17.90;8.55;;;;;;;;;;10416604;28;20052;-76
2024/01/12 10:21:25;;;;;;;;;;;;;;;;;;10416165;28;20127;-76
2024/01/12 10:26:28;;;;;;;23.38;11.75;;;;;;;;;;10473168;28;19927;-75
2024/01/12 10:31:40;;;;;;;17.92;8.93;;;;;;;;;;10474238;28;20044;-75
2024/01/12 10:36:43;;;;;;;18.67;9.45;;;;;;;;;;10478586;28;20039;-76
2024/01/12 10:41:48;;;;;;;12.30;6.88;;;;;;;;;;10472716;28;20420;-76
2024/01/12 10:46:58;;;;;;;10.63;5.50;;;;;;;;;;10484731;28;20163;-76
2024/01/12 10:52:08;;;;;;;10.43;5.43;;;;;;;;;;10482008;28;20052;-75
2024/01/12 10:57:13;;;;;;;10.73;5.55;;;;;;;;;;10490613;28;20064;-76
2024/01/12 11:02:20;;;;;;;8.80;4.95;;;;;;;;;;10487615;28;20039;-76
2024/01/12 11:07:23;;;;;;;14.07;7.80;;;;;;;;;;10482549;22;20036;-76
2024/01/12 11:12:32;;;;;;;20.58;10.27;;;;;;;;;;10440538;28;20555;-76
2024/01/12 11:17:37;;;;;;;12.95;7.05;;;;;;;;;;10442770;28;20071;-76
2024/01/12 11:22:42;;;;;;;11.63;6.38;;;;;;;;;;10441224;28;20494;-77
2024/01/12 11:27:49;;;;;;;12.82;7.38;;;;;;;;;;10449390;28;20048;-77
2024/01/12 11:33:04;;;;;;;11.88;6.70;;;;;;;;;;10455647;28;20052;-76
2024/01/12 11:38:10;;;;;;;14.57;7.60;;;;;;;;;;10449508;28;20045;-76
2024/01/12 11:43:17;;;;;;;12.63;6.38;;;;;;;;;;10425852;28;20572;-76
2024/01/12 11:48:22;;;;;;;9.13;5.00;;;;;;;;;;10422657;28;20057;-76
2024/01/12 11:53:25;;;;;;;10.70;5.78;;;;;;;;;;10439445;28;20066;-76
2024/01/12 11:58:32;;;;;;;16.98;8.38;;;;;;;;;;10451830;28;20049;-76
2024/01/12 12:03:36;;;;;;;;;;;;;;;;;;10446962;28;20553;-76
2024/01/12 12:08:40;;;;;;;15.13;7.95;;;;;;;;;;10432654;28;20024;-76
2024/01/12 12:13:44;;;;;;;9.52;5.95;;;;;;;;;;10439492;28;20128;-76
2024/01/12 12:18:48;;;;;;;15.50;8.77;;;;;;;;;;10454210;28;20045;-76
2024/01/12 12:23:52;;;;;;;15.65;7.90;;;;;;;;;;10459224;28;20044;-76
2024/01/12 12:28:56;;;;;;;15.57;7.45;;;;;;;;;;10461128;28;20156;-76
2024/01/12 12:34:01;;;;;;;14.15;7.35;;;;;;;;;;10449837;28;20045;-76
2024/01/12 12:39:06;;;;;;;23.60;12.32;;;;;;;;;;10450145;28;20103;-76
2024/01/12 12:44:10;;;;;;;20.08;9.70;;;;;;;;;;10437625;28;20041;-76
2024/01/12 12:49:14;;;;;;;26.88;13.18;;;;;;;;;;10430077;28;20064;-76
2024/01/12 12:54:19;;;;;;;16.75;10.25;;;;;;;;;;10444580;28;20047;-76
2024/01/12 12:59:22;;;;;;;18.88;9.93;;;;;;;;;;10430200;28;20041;-76
2024/01/12 13:04:26;;;;;;;19.98;10.98;;;;;;;;;;10441365;28;20042;-76
2024/01/12 13:09:30;;;;;;;22.58;11.20;;;;;;;;;;10459112;28;20043;-76
2024/01/12 13:14:33;;;;;;;19.60;10.80;;;;;;;;;;10445877;28;20045;-76
2024/01/12 13:19:38;;;;;;;19.00;9.75;;;;;;;;;;10449390;28;20133;-76
2024/01/12 13:24:42;;;;;;;23.67;11.53;;;;;;;;;;10445255;28;20670;-76
2024/01/12 13:29:45;;;;;;;22.45;11.77;;;;;;;;;;10442315;28;20525;-76
2024/01/12 13:34:49;;;;;;;20.38;9.88;;;;;;;;;;10456315;28;20047;-76
2024/01/12 13:39:53;;;;;;;13.95;7.65;;;;;;;;;;10449457;28;20275;-76
2024/01/12 13:44:56;;;;;;;16.63;8.88;;;;;;;;;;10462462;28;20059;-76
2024/01/12 13:50:01;;;;;;;13.32;6.80;;;;;;;;;;10458692;28;20127;-76
2024/01/12 13:55:05;;;;;;;16.17;7.57;;;;;;;;;;10445607;28;20162;-76
2024/01/12 14:00:12;;;;;;;16.85;8.65;;;;;;;;;;10458253;28;20131;-76
2024/01/12 14:05:18;;;;;;;12.55;6.15;;;;;;;;;;10430796;28;20052;-76
2024/01/12 14:10:22;;;;;;;14.38;7.50;;;;;;;;;;10442159;28;20049;-76
2024/01/12 14:15:25;;;;;;;18.55;10.13;;;;;;;;;;10434270;28;20041;-76
2024/01/12 14:20:30;;;;;;;21.98;10.65;;;;;;;;;;10433780;28;20041;-76
2024/01/12 14:25:34;;;;;;;16.08;9.00;;;;;;;;;;10440568;28;20047;-76
2024/01/12 14:30:37;;;;;;;15.02;8.45;;;;;;;;;;10441241;28;20044;-77
2024/01/12 14:35:43;;;;;;;11.05;6.18;;;;;;;;;;10437220;28;20118;-76
2024/01/12 14:40:47;;;;;;;14.55;7.45;;;;;;;;;;10447543;28;20057;-76
2024/01/12 14:45:50;;;;;;;12.13;6.35;;;;;;;;;;10443795;28;20043;-76
2024/01/12 14:50:55;;;;;;;10.35;5.85;;;;;;;;;;10447704;28;20144;-76
2024/01/12 14:55:58;;;;;;;18.55;9.20;;;;;;;;;;10424415;28;20041;-76
2024/01/12 15:01:02;;;;;;;15.43;7.47;;;;;;;;;;10433285;28;20140;-76
2024/01/12 15:06:07;;;;;;;15.68;7.85;;;;;;;;;;10454901;28;20396;-76
2024/01/12 15:11:11;;;;;;;12.43;6.40;;;;;;;;;;10437019;28;20037;-76
2024/01/12 15:16:14;;;;;;;17.23;9.57;;;;;;;;;;10444302;28;20057;-76
2024/01/12 15:21:20;;;;;;;17.02;8.60;;;;;;;;;;10446428;28;20049;-77
2024/01/12 15:26:24;;;;;;;21.53;11.47;;;;;;;;;;10452065;28;20029;-76
2024/01/12 15:31:28;;;;;;;18.30;9.10;;;;;;;;;;10445938;28;20287;-76
2024/01/12 15:36:33;;;;;;;18.35;9.88;;;;;;;;;;10437646;28;20033;-76
2024/01/12 15:41:38;;;;;;;12.60;7.85;;;;;;;;;;10447253;28;20072;-76
2024/01/12 15:46:41;;;;;;;19.75;8.55;;;;;;;;;;10444032;28;20041;-76
2024/01/12 15:51:45;;;;;;;15.82;8.50;;;;;;;;;;10449352;28;20029;-76
2024/01/12 15:56:49;;;;;;;17.92;9.07;;;;;;;;;;10450474;28;20498;-77
2024/01/12 16:01:52;;;;;;;13.02;7.72;;;;;;;;;;10445669;28;20056;-77
2024/01/12 16:06:57;;;;;;;13.98;7.68;;;;;;;;;;10453541;28;20131;-76
2024/01/12 16:12:00;;;;;;;10.85;5.57;;;;;;;;;;10458734;28;20261;-76
2024/01/12 16:17:04;;;;;;;10.10;6.00;;;;;;;;;;10450446;28;20667;-76
2024/01/12 16:22:09;;;;;;;10.27;5.75;;;;;;;;;;10449892;28;20060;-76
2024/01/12 16:27:16;;;;;;;14.15;7.07;;;;;;;;;;10450685;28;20037;-77
2024/01/12 16:32:19;;;;;;;11.32;6.57;;;;;;;;;;10447506;28;20505;-77
2024/01/12 16:37:24;;;;;;;12.68;6.95;;;;;;;;;;10441272;28;20720;-77
2024/01/12 16:42:27;;;;;;;13.38;7.75;;;;;;;;;;10449351;28;20124;-77
2024/01/12 16:47:30;;;;;;;10.98;6.28;;;;;;;;;;10447971;28;20734;-77
2024/01/12 16:52:38;;;;;;;10.95;6.28;;;;;;;;;;10453070;28;20040;-77
2024/01/12 16:57:42;;;;;;;11.07;5.35;;;;;;;;;;10448352;28;20048;-77
2024/01/12 17:02:45;;;;;;;10.25;5.75;;;;;;;;;;10451662;28;20353;-77
2024/01/12 17:07:50;;;;;;;10.23;5.85;;;;;;;;;;10452728;28;20098;-77
2024/01/12 17:12:53;;;;;;;8.73;5.30;;;;;;;;;;10450727;28;20041;-77
2024/01/12 17:17:57;;;;;;;15.82;7.70;;;;;;;;;;10427642;28;20534;-77
2024/01/12 17:23:01;;;;;;;13.35;7.60;;;;;;;;;;10438771;28;20091;-77
2024/01/12 17:28:05;;;;;;;11.27;6.50;;;;;;;;;;10448370;28;20047;-77
2024/01/12 17:33:09;;;;;;;9.50;6.13;;;;;;;;;;10447925;28;20048;-78
2024/01/12 17:38:13;;;;;;;11.02;5.78;;;;;;;;;;10446709;28;20044;-77
2024/01/12 17:43:17;;;;;;;11.07;5.82;;;;;;;;;;10457386;28;20045;-77
2024/01/12 17:48:20;;;;;;;8.55;5.00;;;;;;;;;;10422063;28;20047;-76
2024/01/12 17:53:25;;;;;;;8.43;5.18;;;;;;;;;;10450345;28;20061;-77
2024/01/12 17:58:28;;;;;;;7.68;4.80;;;;;;;;;;10454391;28;20132;-77
2024/01/12 18:03:31;;;;;;;8.70;5.20;;;;;;;;;;10458094;28;20048;-77
2024/01/12 18:08:36;;;;;;;7.93;4.82;;;;;;;;;;10461904;28;20041;-77
2024/01/12 18:13:39;;;;;;;10.20;5.70;;;;;;;;;;10457262;28;20410;-77
2024/01/12 18:18:43;;;;;;;9.60;5.20;;;;;;;;;;10444182;28;20037;-77
2024/01/12 18:23:47;;;;;;;11.23;5.63;;;;;;;;;;10459771;28;20049;-77
2024/01/12 18:28:50;;;;;;;9.52;5.95;;;;;;;;;;10462919;28;20042;-77
2024/01/12 18:33:54;;;;;;;9.93;5.65;;;;;;;;;;10431153;28;20490;-76
2024/01/12 18:38:58;;;;;;;11.38;6.40;;;;;;;;;;10445244;28;20768;-77
2024/01/12 18:44:01;;;;;;;12.18;6.90;;;;;;;;;;10464449;28;20053;-77
2024/01/12 18:49:05;;;;;;;12.35;6.20;;;;;;;;;;10463406;28;20050;-77
2024/01/12 18:54:10;;;;;;;12.15;7.25;;;;;;;;;;10446546;28;20051;-77
2024/01/12 18:59:13;;;;;;;12.57;7.05;;;;;;;;;;10462066;28;20659;-77
2024/01/12 19:04:16;;;;;;;13.73;7.53;;;;;;;;;;10467456;28;20056;-77
2024/01/12 19:09:21;;;;;;;13.02;7.63;;;;;;;;;;10458456;28;20127;-76
2024/01/12 19:14:25;;;;;;;13.63;7.15;;;;;;;;;;10460207;28;20585;-77
2024/01/12 19:19:28;;;;;;;11.15;6.75;;;;;;;;;;10459578;28;20127;-77
2024/01/12 19:24:32;;;;;;;14.43;7.38;;;;;;;;;;10457398;28;20071;-77
2024/01/12 19:29:37;;;;;;;12.60;6.88;;;;;;;;;;10433946;28;20045;-77
2024/01/12 19:34:41;;;;;;;13.30;7.40;;;;;;;;;;10451740;28;20075;-77
2024/01/12 19:39:46;;;;;;;14.82;8.27;;;;;;;;;;10455811;28;20037;-77
2024/01/12 19:44:49;;;;;;;13.82;6.95;;;;;;;;;;10453922;28;20535;-76
2024/01/12 19:49:52;;;;;;;14.25;8.10;;;;;;;;;;10460120;28;20057;-77
2024/01/12 19:54:57;;;;;;;17.05;9.18;;;;;;;;;;10458464;28;20049;-77
2024/01/12 20:00:00;;;;;;;17.33;8.70;;;;;;;;;;10438732;28;20047;-77
2024/01/12 20:05:08;;;;;;;13.73;7.32;;;;;;;;;;10446205;28;20405;-77
2024/01/12 20:10:13;;;;;;;15.77;8.18;;;;;;;;;;10434657;28;20049;-77
2024/01/12 20:15:17;;;;;;;12.80;7.45;;;;;;;;;;10435452;28;20394;-77
2024/01/12 20:20:20;;;;;;;15.98;7.65;;;;;;;;;;10442169;28;20129;-77
2024/01/12 20:25:25;;;;;;;16.75;8.35;;;;;;;;;;10433379;28;20365;-77
2024/01/12 20:30:28;;;;;;;11.90;7.07;;;;;;;;;;10439327;28;20053;-77
2024/01/12 20:35:31;;;;;;;12.93;7.10;;;;;;;;;;10447930;28;20056;-77
2024/01/12 20:40:38;;;;;;;13.52;7.18;;;;;;;;;;10442927;28;20153;-77
2024/01/12 20:45:41;;;;;;;12.38;7.32;;;;;;;;;;10444585;28;20053;-77
2024/01/12 20:50:46;;;;;;;14.27;7.68;;;;;;;;;;10447112;28;20106;-77
2024/01/12 20:55:51;;;;;;;11.82;7.00;;;;;;;;;;10434198;28;20132;-77
2024/01/12 21:00:55;;;;;;;12.30;6.85;;;;;;;;;;10445636;28;20041;-77
2024/01/12 21:05:58;;;;;;;14.25;7.95;;;;;;;;;;10438880;28;20037;-76
2024/01/12 21:11:03;;;;;;;14.05;7.90;;;;;;;;;;10429403;28;20044;-77
2024/01/12 21:16:10;;;;;;;15.52;7.65;;;;;;;;;;10446108;28;20041;-77
2024/01/12 21:21:13;;;;;;;15.43;7.85;;;;;;;;;;10443002;28;20041;-77
2024/01/12 21:26:18;;;;;;;13.13;7.75;;;;;;;;;;10443680;28;20234;-77
2024/01/12 21:31:21;;;;;;;15.07;8.07;;;;;;;;;;10448509;28;20051;-77
2024/01/12 21:36:24;;;;;;;15.82;7.95;;;;;;;;;;10442901;28;20048;-76
2024/01/12 21:41:30;;;;;;;14.70;7.72;;;;;;;;;;10447538;28;20037;-77
2024/01/12 21:46:33;;;;;;;13.95;8.02;;;;;;;;;;10447571;28;20044;-77
2024/01/12 21:51:37;;;;;;;18.00;9.38;;;;;;;;;;10451233;28;20033;-77
2024/01/12 21:56:41;;;;;;;14.30;8.48;;;;;;;;;;10444714;28;20705;-76
2024/01/12 22:01:45;;;;;;;16.45;8.57;;;;;;;;;;10445611;28;20060;-76
2024/01/12 22:06:48;;;;;;;14.57;8.13;;;;;;;;;;10447605;28;20520;-77
2024/01/12 22:11:53;;;;;;;14.70;7.70;;;;;;;;;;10440473;28;20107;-77
2024/01/12 22:16:57;;;;;;;15.80;8.70;;;;;;;;;;10443470;28;20064;-77
2024/01/12 22:22:01;;;;;;;13.40;7.35;;;;;;;;;;10443946;28;20681;-76
2024/01/12 22:27:06;;;;;;;15.27;8.52;;;;;;;;;;10435490;28;20044;-77
2024/01/12 22:32:11;;;;;;;15.40;7.75;;;;;;;;;;10432995;28;20044;-77
2024/01/12 22:37:14;;;;;;;15.27;8.30;;;;;;;;;;10438692;28;20059;-77
2024/01/12 22:42:19;;;;;;;13.70;7.68;;;;;;;;;;10456342;28;20049;-77
2024/01/12 22:47:26;;;;;;;15.77;7.93;;;;;;;;;;10448260;28;20041;-77
2024/01/12 22:52:31;;;;;;;15.38;8.50;;;;;;;;;;10427142;28;20111;-77
2024/01/12 22:57:36;;;;;;;18.07;8.47;;;;;;;;;;10425721;28;20041;-77
2024/01/12 23:02:39;;;;;;;17.58;8.52;;;;;;;;;;10453309;28;20091;-77
2024/01/12 23:07:42;;;;;;;19.60;9.70;;;;;;;;;;10438177;28;20144;-77
2024/01/12 23:12:47;;;;;;;20.67;9.88;;;;;;;;;;10429702;28;20051;-77
2024/01/12 23:17:50;;;;;;;20.50;10.10;;;;;;;;;;10426020;28;20045;-77
2024/01/12 23:22:54;;;;;;;16.98;9.55;;;;;;;;;;10447158;28;20391;-77
2024/01/12 23:27:59;;;;;;;17.15;9.57;;;;;;;;;;10429076;28;20056;-77
2024/01/12 23:33:02;;;;;;;18.63;9.13;;;;;;;;;;10447382;28;20056;-77
2024/01/12 23:38:07;;;;;;;20.73;9.38;;;;;;;;;;10440833;28;20817;-77
2024/01/12 23:43:12;;;;;;;23.13;10.73;;;;;;;;;;10430372;28;20091;-76
2024/01/12 23:48:15;;;;;;;21.85;10.77;;;;;;;;;;10444862;28;20044;-77
2024/01/12 23:53:22;;;;;;;19.40;9.35;;;;;;;;;;10449772;28;20053;-76
2024/01/12 23:58:26;;;;;;;18.38;9.27;;;;;;;;;;10445704;28;20063;-77
